Time;durP1;ratioP1;P1;durP2;ratioP2;P2;SDS_P1;SDS_P2;PMS_P1;PMS_P2;Temp;Humidity;BMP_temperature;BMP_pressure;BME280_temperature;BME280_humidity;BME280_pressure;Samples;Min_cycle;Max_cycle;Signal;HPM_P1;HPM_P2
2021/05/06 00:02:17;;;;;;;3.73;0.93;;;;;;;14.31;42.06;99881.78;5076641;28;20533;-50
2021/05/06 00:07:48;;;;;;;8.13;2.37;;;;;;;14.79;41.31;99877.19;5076760;28;20935;-50
2021/05/06 00:32:31;;;;;;;10.07;2.70;;;;;;;14.25;41.31;99877.38;5072779;28;20512;-51
2021/05/06 00:34:58;;;;;;;7.97;1.37;;;;;;;14.23;41.46;99883.41;5077644;28;20432;-52
2021/05/06 00:37:24;;;;;;;13.23;3.13;;;;;;;14.18;41.20;99871.25;5075582;28;20496;-48
2021/05/06 00:39:55;;;;;;;6.73;1.90;;;;;;;14.87;40.51;99868.59;5077366;28;20429;-52
2021/05/06 00:42:33;;;;;;;12.73;2.93;;;;;;;14.75;40.49;99867.59;5076390;28;20562;-51
2021/05/06 00:56:26;;;;;;;2.53;0.93;;;;;;;14.12;41.37;99868.59;5076452;28;20444;-48
2021/05/06 01:04:42;;;;;;;4.10;1.70;;;;;;;14.41;40.55;99862.88;5071956;28;20524;-51
2021/05/06 01:07:35;;;;;;;1.87;0.90;;;;;;;14.13;41.21;99862.53;5075954;28;20473;-51
2021/05/06 01:10:17;;;;;;;8.77;1.93;;;;;;;15.08;39.98;99865.31;5059312;28;20434;-49
2021/05/06 01:12:46;;;;;;;9.13;1.67;;;;;;;13.73;41.65;99861.97;5066213;28;20456;-51
2021/05/06 01:15:21;;;;;;;6.53;1.87;;;;;;;13.41;42.67;99870.09;5077282;28;20808;-51
2021/05/06 01:17:47;;;;;;;24.27;1.50;;;;;;;13.52;42.83;99858.22;5076019;28;20491;-49
2021/05/06 01:20:15;;;;;;;7.57;1.70;;;;;;;14.07;41.85;99857.28;5076620;28;20527;-49
2021/05/06 01:22:42;;;;;;;16.70;3.40;;;;;;;14.04;41.48;99862.41;5075808;28;20498;-48
2021/05/06 01:25:10;;;;;;;4.87;1.00;;;;;;;14.08;41.66;99864.19;5076878;28;20936;-49
2021/05/06 01:27:41;;;;;;;9.90;1.70;;;;;;;13.87;41.93;99864.78;5075785;28;20522;-48
2021/05/06 01:30:46;;;;;;;9.77;1.67;;;;;;;13.41;42.92;99867.50;5069453;28;20431;-48
2021/05/06 01:33:15;;;;;;;10.90;3.10;;;;;;;14.12;41.29;99866.00;5074759;28;20516;-50
2021/05/06 01:35:48;;;;;;;15.27;2.33;;;;;;;13.90;42.03;99870.88;5076578;28;20495;-50
2021/05/06 01:38:39;;;;;;;11.73;2.13;;;;;;;14.71;40.57;99864.06;5074933;28;20530;-50
2021/05/06 01:41:33;;;;;;;3.87;1.80;;;;;;;14.38;41.03;99856.78;5075284;28;20490;-52
2021/05/06 01:44:04;;;;;;;8.53;2.17;;;;;;;14.03;41.60;99864.16;5076776;28;20461;-52
2021/05/06 01:46:54;;;;;;;7.90;1.57;;;;;;;14.30;41.01;99864.47;5075636;28;20456;-49
2021/05/06 01:49:44;;;;;;;16.43;1.70;;;;;;;13.85;41.90;99869.94;5075610;28;20770;-51
2021/05/06 01:58:03;;;;;;;17.50;2.90;;;;;;;14.15;41.96;99865.16;5075552;28;20457;-49
2021/05/06 02:00:35;;;;;;;16.67;2.17;;;;;;;13.26;43.21;99870.72;5075665;28;20432;-50
2021/05/06 02:03:02;;;;;;;5.70;1.30;;;;;;;13.36;43.35;99883.88;5075204;28;20457;-49
2021/05/06 02:05:29;;;;;;;12.90;1.93;;;;;;;13.90;42.04;99870.88;5076333;28;20456;-52
2021/05/06 02:07:56;;;;;;;10.53;2.07;;;;;;;14.07;41.59;99878.03;5075208;28;20747;-48
2021/05/06 02:10:26;;;;;;;6.27;1.33;;;;;;;14.00;41.85;99878.78;5075614;28;20461;-50
2021/05/06 02:12:54;;;;;;;4.03;1.50;;;;;;;14.11;41.95;99879.78;5074799;28;21024;-48
2021/05/06 02:15:23;;;;;;;4.67;1.03;;;;;;;13.56;42.81;99885.94;5075975;28;20469;-50
2021/05/06 02:17:50;;;;;;;6.50;1.30;;;;;;;14.02;42.91;99880.56;5075077;28;20471;-50
2021/05/06 02:20:17;;;;;;;11.57;1.90;;;;;;;14.15;42.25;99886.78;5075641;28;20480;-51
2021/05/06 02:22:45;;;;;;;4.93;0.90;;;;;;;14.09;42.46;99872.88;5074502;28;20501;-48
2021/05/06 02:25:13;;;;;;;10.47;2.13;;;;;;;13.98;42.44;99877.88;5075763;28;20437;-51
2021/05/06 02:27:40;;;;;;;10.90;1.50;;;;;;;13.44;42.98;99890.91;5074454;28;20479;-49
2021/05/06 02:30:09;;;;;;;2.90;0.97;;;;;;;13.67;42.62;99882.63;5075431;28;20433;-51
2021/05/06 02:32:35;;;;;;;6.37;1.30;;;;;;;14.14;41.84;99874.66;5074406;28;20491;-49
2021/05/06 02:35:03;;;;;;;5.97;3.00;;;;;;;13.97;42.04;99877.03;5075743;28;20470;-51
2021/05/06 02:37:30;;;;;;;13.60;2.00;;;;;;;13.89;42.25;99879.50;5074868;28;20475;-48
2021/05/06 02:39:57;;;;;;;11.43;2.20;;;;;;;14.45;40.56;99887.13;5075326;28;20439;-51
2021/05/06 02:42:23;;;;;;;11.17;2.33;;;;;;;14.25;41.07;99892.09;5074416;28;20567;-48
2021/05/06 02:44:51;;;;;;;9.43;1.97;;;;;;;14.35;41.04;99891.34;5075840;28;20450;-50
2021/05/06 02:47:18;;;;;;;8.33;2.30;;;;;;;14.23;41.24;99894.66;5074674;28;20471;-50
2021/05/06 02:49:47;;;;;;;15.20;4.03;;;;;;;13.47;42.62;99890.97;5075214;28;20531;-48
2021/05/06 02:52:18;;;;;;;4.73;1.17;;;;;;;14.51;41.09;99894.13;5074472;28;20453;-50
2021/05/06 02:54:48;;;;;;;8.57;1.73;;;;;;;14.47;40.98;99888.03;5075442;28;20483;-51
2021/05/06 02:57:21;;;;;;;14.00;2.43;;;;;;;14.15;41.39;99891.97;5074597;28;20565;-50
2021/05/06 03:05:28;;;;;;;4.80;1.60;;;;;;;13.61;42.55;99881.72;5069576;28;20919;-49
2021/05/06 03:08:11;;;;;;;15.63;1.73;;;;;;;13.85;41.63;99893.25;5072472;28;20471;-48
2021/05/06 03:10:51;;;;;;;11.27;1.90;;;;;;;14.00;41.50;99890.03;5074968;28;20442;-48
2021/05/06 03:24:20;;;;;;;8.20;1.30;;;;;;;13.26;42.88;99887.16;5075334;28;20454;-52
2021/05/06 03:26:47;;;;;;;19.17;2.67;;;;;;;13.91;41.84;99880.38;5074432;28;20450;-50
2021/05/06 03:29:18;;;;;;;3.87;1.20;;;;;;;13.86;41.65;99883.78;5075263;28;20462;-51
2021/05/06 03:32:04;;;;;;;2.27;0.87;;;;;;;13.59;42.05;99880.78;5074064;28;20445;-53
2021/05/06 03:43:07;;;;;;;10.30;2.63;;;;;;;13.65;41.66;99893.00;5074142;28;20756;-49
2021/05/06 04:16:21;;;;;;;5.30;1.50;;;;;;;13.77;41.61;99890.59;5077312;28;20434;-50
2021/05/06 04:18:53;;;;;;;9.10;1.63;;;;;;;13.55;42.07;99893.69;5078317;28;20432;-51
2021/05/06 04:21:32;;;;;;;6.67;1.40;;;;;;;13.49;42.32;99892.72;5076615;28;20454;-51
2021/05/06 04:26:50;;;;;;;4.47;1.17;;;;;;;13.20;42.49;99897.41;5077234;28;20442;-49
2021/05/06 04:37:25;;;;;;;6.20;1.57;;;;;;;13.95;41.03;99904.63;5076931;28;20545;-50
2021/05/06 04:39:54;;;;;;;9.87;1.30;;;;;;;13.78;41.22;99907.00;5077662;28;20455;-48
2021/05/06 04:53:47;;;;;;;7.57;1.70;;;;;;;13.74;41.50;99913.00;5077335;28;20449;-49
2021/05/06 04:56:33;;;;;;;11.63;2.97;;;;;;;14.66;39.62;99909.03;5076518;28;20456;-49
2021/05/06 04:59:21;;;;;;;6.10;1.30;;;;;;;13.89;41.46;99910.63;5077159;28;20459;-50
2021/05/06 05:04:33;;;;;;;25.47;3.23;;;;;;;14.30;40.05;99903.38;5077406;28;20425;-49
2021/05/06 05:07:08;;;;;;;4.63;1.30;;;;;;;13.67;41.21;99903.34;5076446;28;20562;-50
2021/05/06 05:12:43;;;;;;;4.30;1.50;;;;;;;13.82;41.44;99898.41;5070221;28;20524;-49
2021/05/06 05:18:01;;;;;;;12.10;1.03;;;;;;;13.71;41.32;99908.63;5075924;28;20464;-49
2021/05/06 05:20:38;;;;;;;10.90;1.30;;;;;;;14.23;41.07;99899.84;5076826;28;20540;-50
2021/05/06 05:25:56;;;;;;;3.67;1.33;;;;;;;14.31;40.83;99918.13;5075037;28;20463;-50
2021/05/06 05:28:23;;;;;;;7.53;2.10;;;;;;;14.55;40.43;99912.34;5075571;28;20429;-49
2021/05/06 05:30:49;;;;;;;10.17;2.07;;;;;;;14.44;39.99;99913.94;5076172;28;20437;-53
2021/05/06 05:33:21;;;;;;;9.90;3.10;;;;;;;14.54;40.20;99912.31;5075108;28;20549;-52
2021/05/06 05:35:54;;;;;;;7.40;2.60;;;;;;;14.44;40.33;99917.41;5076693;28;20535;-52
2021/05/06 05:38:31;;;;;;;19.50;5.63;;;;;;;14.85;40.48;99910.13;5076021;28;20945;-49
2021/05/06 05:41:08;;;;;;;6.17;1.50;;;;;;;14.26;40.63;99914.59;5074979;28;20445;-52
2021/05/06 05:43:52;;;;;;;20.53;4.57;;;;;;;14.93;39.37;99915.41;5076455;28;20478;-48
2021/05/06 05:54:36;;;;;;;20.23;6.90;;;;;;;15.77;37.87;99919.59;5075959;28;20941;-49
2021/05/06 05:57:09;;;;;;;9.53;2.30;;;;;;;14.75;39.75;99924.72;5075416;28;20558;-52
2021/05/06 05:59:36;;;;;;;9.20;1.70;;;;;;;15.80;38.12;99929.16;5075807;28;20535;-50
2021/05/06 06:02:02;;;;;;;17.53;5.57;;;;;;;15.99;38.07;99918.91;5064781;28;20540;-50
2021/05/06 06:04:29;;;;;;;10.10;2.13;;;;;;;15.69;38.43;99923.00;5076220;28;20485;-49
2021/05/06 06:06:56;;;;;;;4.80;2.10;;;;;;;15.40;39.29;99914.09;5075117;28;20458;-48
2021/05/06 06:09:22;;;;;;;23.47;8.53;;;;;;;15.06;39.42;99918.97;5075897;28;20867;-50
2021/05/06 06:11:49;;;;;;;7.80;1.70;;;;;;;16.10;37.96;99921.56;5074439;28;20478;-48
2021/05/06 06:14:21;;;;;;;4.50;1.40;;;;;;;16.40;37.70;99930.38;5075764;28;20927;-48
2021/05/06 06:16:48;;;;;;;6.37;1.50;;;;;;;16.09;37.75;99931.06;5074968;28;20843;-49
2021/05/06 06:19:16;;;;;;;10.77;3.27;;;;;;;15.55;38.36;99931.56;5075988;28;20775;-48
2021/05/06 06:21:46;;;;;;;20.60;7.93;;;;;;;16.62;37.24;99940.88;5074057;28;20482;-50
2021/05/06 06:24:13;;;;;;;20.17;4.40;;;;;;;16.73;37.05;99939.19;5075705;28;20757;-49
2021/05/06 06:26:39;;;;;;;12.40;4.00;;;;;;;16.04;38.64;99938.88;5074659;28;20479;-50
2021/05/06 06:29:08;;;;;;;19.83;4.43;;;;;;;16.50;37.14;99946.91;5075595;28;20512;-48
2021/05/06 06:31:39;;;;;;;7.03;1.83;;;;;;;16.01;38.25;99937.97;5074057;28;20558;-50
2021/05/06 06:34:06;;;;;;;17.53;6.70;;;;;;;16.67;37.23;99940.03;5075518;28;20478;-48
2021/05/06 06:36:34;;;;;;;10.13;2.43;;;;;;;15.99;37.76;99935.34;5073634;28;20481;-50
2021/05/06 06:39:00;;;;;;;8.33;2.77;;;;;;;16.70;37.54;99944.38;5075433;28;20453;-51
2021/05/06 06:41:27;;;;;;;7.63;2.77;;;;;;;16.92;36.94;99947.06;5074139;28;20845;-48
2021/05/06 06:43:56;;;;;;;12.03;2.47;;;;;;;17.17;35.79;99937.56;5075287;28;20772;-49
2021/05/06 06:46:22;;;;;;;15.60;3.40;;;;;;;16.36;37.06;99949.44;5074607;28;20562;-51
2021/05/06 06:48:50;;;;;;;8.70;2.13;;;;;;;16.40;38.24;99944.25;5075240;28;20466;-49
2021/05/06 06:51:16;;;;;;;15.03;4.73;;;;;;;16.90;36.66;99938.34;5074301;28;20458;-50
2021/05/06 06:53:43;;;;;;;21.13;3.30;;;;;;;16.57;36.38;99941.72;5075026;28;20839;-47
2021/05/06 06:56:10;;;;;;;13.73;4.00;;;;;;;17.25;36.75;99935.88;5073641;28;20467;-49
2021/05/06 06:58:39;;;;;;;8.63;2.90;;;;;;;16.08;37.92;99938.88;5074808;28;20471;-48
2021/05/06 07:01:07;;;;;;;6.20;1.73;;;;;;;15.84;37.28;99935.25;5073967;28;20528;-50
2021/05/06 07:03:33;;;;;;;7.80;2.40;;;;;;;15.80;37.73;99930.00;5075150;28;20514;-51
2021/05/06 07:06:01;;;;;;;18.27;5.10;;;;;;;17.14;35.63;99935.84;5074512;28;20481;-48
2021/05/06 07:08:31;;;;;;;7.80;1.63;;;;;;;15.86;37.20;99923.09;5074994;28;20496;-49
2021/05/06 07:10:59;;;;;;;6.13;1.00;;;;;;;16.11;37.37;99920.69;5073839;28;20463;-48
2021/05/06 07:13:26;;;;;;;44.80;3.27;;;;;;;16.50;36.03;99926.94;5075102;28;20573;-50
2021/05/06 07:15:55;;;;;;;11.57;2.30;;;;;;;16.87;36.09;99929.66;5075162;28;20458;-48
2021/05/06 07:18:22;;;;;;;4.60;1.30;;;;;;;16.66;36.64;99938.28;5074508;28;20467;-49
2021/05/06 07:20:49;;;;;;;9.10;1.93;;;;;;;15.90;36.96;99933.53;5074246;28;20451;-50
2021/05/06 07:23:18;;;;;;;11.13;1.50;;;;;;;16.76;36.22;99927.91;5073861;28;20474;-49
2021/05/06 07:25:50;;;;;;;7.33;1.10;;;;;;;16.71;36.70;99927.88;5075205;28;20466;-48
2021/05/06 07:28:22;;;;;;;4.20;1.07;;;;;;;16.29;36.97;99927.72;5074011;28;20916;-49
2021/05/06 07:30:51;;;;;;;7.50;1.50;;;;;;;16.94;36.18;99935.78;5074632;28;20458;-50
2021/05/06 07:33:22;;;;;;;6.20;1.80;;;;;;;18.29;33.74;99914.03;5074258;28;20475;-51
2021/05/06 07:35:52;;;;;;;8.87;1.80;;;;;;;17.82;33.86;99915.84;5074438;28;20477;-50
2021/05/06 07:38:21;;;;;;;14.93;2.40;;;;;;;17.40;34.92;99927.16;5073240;28;20479;-48
2021/05/06 07:40:50;;;;;;;15.13;2.43;;;;;;;15.90;36.88;99943.09;5074626;28;20458;-51
2021/05/06 07:43:22;;;;;;;10.63;1.80;;;;;;;16.26;35.78;99949.38;5073893;28;20544;-49
2021/05/06 07:45:50;;;;;;;4.27;1.47;;;;;;;17.24;35.64;99933.25;5074842;28;20459;-49
2021/05/06 07:48:19;;;;;;;8.53;1.40;;;;;;;16.18;36.39;99944.16;5075145;28;20928;-49
2021/05/06 07:50:48;;;;;;;7.97;2.03;;;;;;;16.90;35.51;99957.47;5078270;28;20474;-48
2021/05/06 07:53:24;;;;;;;5.87;1.10;;;;;;;17.05;35.04;99946.25;5057511;28;20844;-48
2021/05/06 07:55:55;;;;;;;12.27;2.20;;;;;;;17.66;34.59;99949.78;5063050;28;20523;-49
2021/05/06 07:58:22;;;;;;;10.33;2.97;;;;;;;17.44;34.70;99958.47;5078068;28;20498;-48
2021/05/06 08:00:49;;;;;;;13.50;2.63;;;;;;;18.31;32.77;99958.41;5077941;28;20465;-49
2021/05/06 08:03:15;;;;;;;7.27;2.27;;;;;;;18.18;32.71;99953.22;5077328;28;20471;-49
2021/05/06 08:05:42;;;;;;;8.23;1.90;;;;;;;17.11;34.05;99958.41;5078303;28;20740;-49
2021/05/06 08:08:08;;;;;;;6.00;1.83;;;;;;;17.12;33.93;99963.63;5077161;28;20570;-48
2021/05/06 08:10:35;;;;;;;7.90;1.30;;;;;;;16.85;34.10;99949.66;5077976;28;20755;-49
2021/05/06 08:13:02;;;;;;;16.27;2.03;;;;;;;16.15;34.98;99956.28;5076797;28;20565;-50
2021/05/06 08:15:30;;;;;;;8.43;1.90;;;;;;;17.52;33.26;99956.72;5078394;28;20482;-49
2021/05/06 08:17:57;;;;;;;8.17;1.70;;;;;;;17.43;32.31;99964.56;5076891;28;20931;-51
2021/05/06 08:20:25;;;;;;;11.10;1.67;;;;;;;17.14;34.00;99977.53;5077807;28;20473;-52
2021/05/06 08:22:52;;;;;;;4.80;1.90;;;;;;;17.44;33.26;99961.97;5076946;28;20471;-50
2021/05/06 08:25:23;;;;;;;9.20;1.80;;;;;;;17.46;31.60;99964.53;5077973;28;20455;-49
2021/05/06 08:27:50;;;;;;;10.70;2.17;;;;;;;18.26;31.33;99961.03;5077256;28;20476;-48
2021/05/06 08:30:17;;;;;;;3.60;1.40;;;;;;;17.17;32.75;99966.25;5077819;28;20550;-49
2021/05/06 08:32:44;;;;;;;15.33;3.43;;;;;;;18.41;31.57;99967.94;5076897;28;20471;-48
2021/05/06 08:35:12;;;;;;;3.23;0.97;;;;;;;18.26;32.59;99965.38;5077758;28;20480;-51
2021/05/06 08:37:38;;;;;;;9.90;2.37;;;;;;;18.08;32.12;99954.09;5077058;28;20477;-48
2021/05/06 08:40:07;;;;;;;3.43;1.17;;;;;;;16.93;31.81;99982.66;5077373;28;20539;-48
2021/05/06 08:42:34;;;;;;;12.27;2.40;;;;;;;17.92;31.07;99977.59;5076762;28;20480;-48
2021/05/06 08:45:03;;;;;;;7.20;2.47;;;;;;;17.07;32.66;99975.78;5077526;28;20496;-49
2021/05/06 08:47:32;;;;;;;15.63;3.70;;;;;;;17.59;31.43;99994.13;5076410;28;20522;-49
2021/05/06 08:49:59;;;;;;;7.13;1.67;;;;;;;17.21;33.63;99993.19;5077140;28;20458;-49
2021/05/06 08:52:26;;;;;;;8.57;2.50;;;;;;;17.32;31.92;99995.84;5076169;28;20481;-49
2021/05/06 08:54:54;;;;;;;5.47;2.30;;;;;;;17.40;31.87;99984.53;5076871;28;20482;-48
2021/05/06 08:57:23;;;;;;;14.70;4.00;;;;;;;18.56;31.28;99974.00;5076967;28;20543;-48
2021/05/06 08:59:51;;;;;;;9.70;2.10;;;;;;;17.37;31.97;99978.44;5081094;28;20466;-48
2021/05/06 09:02:18;;;;;;;7.67;2.10;;;;;;;18.92;31.02;99966.84;5076129;28;20560;-48
2021/05/06 09:04:46;;;;;;;3.60;1.17;;;;;;;18.31;31.13;99979.31;5076866;28;20482;-48
2021/05/06 09:07:13;;;;;;;6.50;1.93;;;;;;;18.89;30.10;99974.72;5075945;28;20486;-52
2021/05/06 09:09:43;;;;;;;4.50;1.30;;;;;;;18.25;30.61;99967.13;5076564;28;20892;-48
2021/05/06 09:12:10;;;;;;;7.03;1.27;;;;;;;17.55;31.48;99977.59;5076070;28;20482;-48
2021/05/06 09:14:41;;;;;;;22.83;5.20;;;;;;;18.04;30.77;99991.47;5077042;28;20485;-48
2021/05/06 09:17:23;;;;;;;39.07;12.90;;;;;;;18.95;28.43;99972.06;5075539;28;20568;-49
2021/05/06 09:20:09;;;;;;;13.93;3.83;;;;;;;17.87;30.26;99989.78;5076450;28;20457;-51
2021/05/06 09:22:37;;;;;;;9.00;1.63;;;;;;;17.80;30.14;99985.44;5074620;28;20556;-49
2021/05/06 09:25:27;;;;;;;11.03;2.67;;;;;;;19.00;29.37;99985.13;5076731;28;20452;-48
2021/05/06 09:28:08;;;;;;;7.30;1.90;;;;;;;19.11;29.15;99978.13;5075215;28;20846;-52
2021/05/06 09:30:37;;;;;;;8.60;3.27;;;;;;;18.59;28.47;99979.19;5076621;28;20504;-48
2021/05/06 09:33:04;;;;;;;3.43;0.47;;;;;;;18.31;30.14;99976.69;5075019;28;20959;-51
2021/05/06 09:35:40;;;;;;;11.30;2.80;;;;;;;18.41;29.25;99994.06;5076528;28;20930;-51
2021/05/06 09:38:22;;;;;;;9.20;2.27;;;;;;;20.22;27.50;99985.09;5075371;28;20472;-50
2021/05/06 09:40:49;;;;;;;10.23;3.60;;;;;;;19.41;27.58;99986.66;5076116;28;20462;-51
2021/05/06 09:43:22;;;;;;;7.10;1.53;;;;;;;19.53;27.76;99979.59;5075055;28;20558;-50
2021/05/06 09:45:48;;;;;;;8.57;2.57;;;;;;;19.94;27.54;99995.84;5075563;28;20465;-49
2021/05/06 09:48:16;;;;;;;9.33;4.00;;;;;;;18.60;26.37;99992.25;5074624;28;20783;-48
2021/05/06 09:50:46;;;;;;;4.33;1.40;;;;;;;18.84;26.16;99994.78;5076093;28;20959;-48
2021/05/06 09:53:14;;;;;;;7.50;2.90;;;;;;;19.21;26.69;99988.50;5074752;28;20488;-49
2021/05/06 09:55:40;;;;;;;18.37;4.40;;;;;;;20.11;26.86;99982.59;5075881;28;20573;-50
2021/05/06 09:58:31;;;;;;;11.23;3.83;;;;;;;19.49;27.77;99993.56;5074786;28;20481;-49
2021/05/06 10:00:58;;;;;;;9.30;1.77;;;;;;;19.27;26.92;99986.72;5074729;28;20549;-49
2021/05/06 10:03:31;;;;;;;4.47;1.30;;;;;;;19.78;26.94;99977.63;5075901;28;20502;-50
2021/05/06 10:06:10;;;;;;;7.50;3.17;;;;;;;19.61;26.14;99989.97;5075048;28;20741;-49
2021/05/06 10:08:38;;;;;;;7.30;1.50;;;;;;;19.77;26.61;99986.38;5076147;28;20727;-49
2021/05/06 10:11:09;;;;;;;7.07;2.33;;;;;;;19.27;25.78;99999.81;5073567;28;20463;-49
2021/05/06 10:13:36;;;;;;;10.60;2.53;;;;;;;19.71;25.18;99999.50;5075814;28;20462;-48
2021/05/06 10:16:04;;;;;;;10.33;1.67;;;;;;;18.56;26.73;100013.19;5074591;28;20484;-49
2021/05/06 10:18:31;;;;;;;13.97;2.10;;;;;;;18.20;30.06;100035.00;5075733;28;20489;-48
2021/05/06 10:20:59;;;;;;;12.10;2.50;;;;;;;19.17;29.55;100029.47;5074450;28;20458;-48
2021/05/06 10:23:26;;;;;;;8.73;2.60;;;;;;;19.63;29.76;100043.19;5075462;28;20564;-48
2021/05/06 10:25:54;;;;;;;23.37;9.73;;;;;;;19.01;30.33;100042.63;5075723;28;20461;-49
2021/05/06 10:28:22;;;;;;;4.93;1.33;;;;;;;19.42;29.95;100045.91;5075083;28;20468;-48
2021/05/06 10:30:49;;;;;;;10.23;3.47;;;;;;;19.32;29.87;100049.44;5075031;28;20894;-50
2021/05/06 10:33:20;;;;;;;8.77;2.20;;;;;;;18.37;31.14;100062.84;5073535;28;20541;-49
2021/05/06 10:35:48;;;;;;;6.50;2.37;;;;;;;18.74;31.07;100067.97;5075026;28;20524;-50
2021/05/06 10:38:15;;;;;;;8.83;2.53;;;;;;;19.29;30.79;100057.34;5071418;28;20476;-50
2021/05/06 10:40:42;;;;;;;4.20;1.43;;;;;;;18.76;30.51;100063.63;5074753;28;20547;-48
2021/05/06 10:43:22;;;;;;;10.63;3.43;;;;;;;19.42;29.33;100045.91;5073343;28;20480;-50
2021/05/06 10:45:55;;;;;;;12.17;4.30;;;;;;;19.04;30.02;100049.59;5075094;28;20475;-48
2021/05/06 10:48:22;;;;;;;9.30;3.43;;;;;;;19.34;28.81;100049.44;5074666;28;20557;-51
2021/05/06 10:50:50;;;;;;;4.57;1.30;;;;;;;20.01;28.00;100028.94;5074684;28;20460;-47
2021/05/06 10:53:28;;;;;;;12.97;4.77;;;;;;;19.83;27.01;100041.28;5073554;28;20786;-48
2021/05/06 10:55:55;;;;;;;10.60;1.80;;;;;;;20.47;26.46;100050.31;5072193;28;20931;-50
2021/05/06 10:58:41;;;;;;;10.70;1.80;;;;;;;20.91;26.84;100029.75;5074518;28;20549;-49
2021/05/06 11:01:23;;;;;;;10.70;3.10;;;;;;;21.89;25.83;100022.25;5071829;28;20457;-49
2021/05/06 11:04:08;;;;;;;5.33;1.43;;;;;;;20.28;27.33;100029.56;5074192;28;20486;-51
2021/05/06 11:06:45;;;;;;;9.60;1.27;;;;;;;20.51;27.48;100029.31;5071331;28;20572;-50
2021/05/06 11:09:57;;;;;;;10.60;2.60;;;;;;;21.71;27.07;100027.78;5074648;28;20454;-49
2021/05/06 11:12:27;;;;;;;11.93;2.20;;;;;;;21.16;26.99;100038.19;5072417;28;20519;-49
2021/05/06 11:15:27;;;;;;;8.50;1.70;;;;;;;17.83;36.90;100076.72;5074826;28;20475;-47
2021/05/06 11:17:56;;;;;;;9.57;1.93;;;;;;;16.40;41.59;100086.56;5070664;28;20993;-48
2021/05/06 11:20:45;;;;;;;13.97;4.03;;;;;;;15.85;43.02;100090.41;5074331;28;20466;-50
2021/05/06 11:23:22;;;;;;;12.80;2.40;;;;;;;15.49;43.01;100092.66;5075415;28;20480;-47
2021/05/06 11:25:51;;;;;;;7.03;2.20;;;;;;;14.89;44.11;100080.69;5078692;28;20453;-48
2021/05/06 11:28:41;;;;;;;9.73;2.43;;;;;;;14.62;44.86;100083.75;5076884;28;20479;-48
2021/05/06 11:31:08;;;;;;;6.93;2.63;;;;;;;15.75;42.27;100072.13;5075424;28;20440;-46
2021/05/06 11:33:35;;;;;;;8.80;2.50;;;;;;;16.03;41.13;100072.41;5075657;28;20465;-48
2021/05/06 11:36:06;;;;;;;6.93;3.10;;;;;;;16.39;41.97;100074.41;5077185;28;20533;-46
2021/05/06 11:38:56;;;;;;;15.93;2.70;;;;;;;16.78;41.59;100062.50;5078444;28;20455;-47
2021/05/06 11:41:26;;;;;;;6.77;2.10;;;;;;;16.95;41.97;100064.28;5066293;28;20474;-48
2021/05/06 11:43:55;;;;;;;15.40;2.73;;;;;;;17.35;41.59;100056.66;5078940;28;20525;-49
2021/05/06 11:46:23;;;;;;;12.13;3.57;;;;;;;17.47;40.58;100057.53;5077430;28;20466;-48
2021/05/06 11:48:52;;;;;;;11.23;2.47;;;;;;;17.26;42.58;100065.34;5078618;28;20466;-47
2021/05/06 11:51:30;;;;;;;7.77;2.13;;;;;;;18.32;40.71;100043.69;5076976;28;20482;-47
2021/05/06 11:54:05;;;;;;;6.97;2.67;;;;;;;18.59;39.39;100053.22;5078456;28;20450;-47
2021/05/06 11:56:32;;;;;;;6.10;2.10;;;;;;;18.66;38.02;100038.38;5077028;28;20599;-48
2021/05/06 11:59:00;;;;;;;9.33;1.80;;;;;;;19.20;40.21;100033.84;5078608;28;20459;-49
2021/05/06 12:01:27;;;;;;;5.53;2.03;;;;;;;19.15;38.07;100026.91;5076956;28;20864;-48
2021/05/06 12:03:55;;;;;;;10.83;2.17;;;;;;;18.94;37.37;100022.63;5078440;28;20459;-47
2021/05/06 12:06:30;;;;;;;8.07;1.60;;;;;;;17.97;38.00;100026.28;5076887;28;20772;-49
2021/05/06 12:08:57;;;;;;;8.00;1.63;;;;;;;17.39;38.21;100024.50;5078177;28;20907;-46
2021/05/06 12:11:33;;;;;;;10.33;2.13;;;;;;;17.72;36.31;100026.28;5076804;28;20841;-47
2021/05/06 12:14:00;;;;;;;6.20;1.50;;;;;;;16.92;35.38;100030.44;5078352;28;20458;-47
2021/05/06 12:16:27;;;;;;;5.90;1.60;;;;;;;17.79;35.19;100039.34;5076783;28;20481;-48
2021/05/06 12:19:09;;;;;;;11.03;1.30;;;;;;;18.75;34.89;100021.81;5078075;28;20457;-49
2021/05/06 12:21:38;;;;;;;7.10;1.10;;;;;;;18.07;35.13;100028.06;5076623;28;20478;-49
2021/05/06 12:24:07;;;;;;;5.20;1.70;;;;;;;17.93;34.66;100021.09;5078222;28;20455;-49
2021/05/06 12:26:34;;;;;;;7.90;1.03;;;;;;;17.72;33.93;100031.50;5076347;28;20563;-47
2021/05/06 12:29:01;;;;;;;2.50;0.60;;;;;;;17.86;34.82;100032.41;5077875;28;20459;-51
2021/05/06 12:31:28;;;;;;;8.00;3.00;;;;;;;17.94;34.27;100022.81;5076061;28;20488;-46
2021/05/06 12:33:54;;;;;;;7.17;1.90;;;;;;;18.95;34.77;100018.25;5076710;28;20470;-48
2021/05/06 12:36:22;;;;;;;7.00;1.70;;;;;;;19.76;31.25;100018.66;5076647;28;20564;-47
2021/05/06 12:38:49;;;;;;;8.53;3.17;;;;;;;20.05;30.14;100017.53;5077327;28;20506;-47
2021/05/06 12:41:17;;;;;;;9.90;3.70;;;;;;;21.48;28.54;100011.50;5075719;28;20845;-48
2021/05/06 12:43:46;;;;;;;7.77;1.90;;;;;;;22.07;28.92;100002.69;5077723;28;20455;-47
2021/05/06 12:46:14;;;;;;;6.10;1.70;;;;;;;21.81;27.73;100017.13;5076133;28;20736;-48
2021/05/06 12:48:43;;;;;;;7.30;1.67;;;;;;;22.19;27.91;100004.25;5077381;28;20900;-48
2021/05/06 12:51:12;;;;;;;6.97;1.50;;;;;;;20.53;30.11;100013.59;5076008;28;20454;-47
2021/05/06 12:53:58;;;;;;;10.43;3.50;;;;;;;20.35;29.99;100007.66;5076808;28;20550;-47
2021/05/06 12:56:27;;;;;;;7.13;1.97;;;;;;;20.64;28.33;100019.56;5075628;28;20475;-48
2021/05/06 12:58:53;;;;;;;9.80;1.30;;;;;;;21.00;29.23;100018.28;5077549;28;20461;-47
2021/05/06 13:01:30;;;;;;;3.40;0.57;;;;;;;19.00;32.06;100043.50;5075268;28;20475;-50
2021/05/06 13:03:59;;;;;;;5.50;1.33;;;;;;;17.86;36.49;100061.09;5077330;28;20464;-47
2021/05/06 13:06:31;;;;;;;5.53;1.73;;;;;;;18.38;36.19;100033.25;5075588;28;20536;-48
2021/05/06 13:08:59;;;;;;;6.80;1.57;;;;;;;18.54;34.46;100027.97;5077203;28;20566;-47
2021/05/06 13:11:26;;;;;;;10.47;1.97;;;;;;;19.69;34.63;100033.53;5075018;28;20513;-48
2021/05/06 13:13:54;;;;;;;9.00;1.70;;;;;;;20.83;36.26;100034.19;5076953;28;20463;-49
2021/05/06 13:16:38;;;;;;;9.47;2.37;;;;;;;20.93;34.66;100024.50;5074542;28;20482;-50
2021/05/06 13:19:06;;;;;;;7.03;1.93;;;;;;;20.88;34.53;100022.78;5076662;28;20785;-51
2021/05/06 13:21:33;;;;;;;5.57;1.50;;;;;;;20.69;32.42;100026.50;5075019;28;20482;-50
2021/05/06 13:24:01;;;;;;;10.30;1.90;;;;;;;21.35;30.14;100016.94;5076901;28;20454;-51
2021/05/06 13:26:33;;;;;;;3.93;1.03;;;;;;;20.62;31.85;100018.69;5075409;28;20475;-49
2021/05/06 13:29:01;;;;;;;6.67;1.47;;;;;;;21.77;30.40;100010.19;5076842;28;20451;-50
2021/05/06 13:31:32;;;;;;;4.80;0.87;;;;;;;20.85;29.84;100001.00;5074949;28;20474;-50
2021/05/06 13:34:17;;;;;;;4.73;1.50;;;;;;;21.50;28.52;100004.47;5076481;28;20836;-48
2021/05/06 13:36:46;;;;;;;7.23;1.30;;;;;;;22.52;29.35;99996.63;5074216;28;20471;-51
2021/05/06 13:39:13;;;;;;;13.23;1.90;;;;;;;22.86;28.24;100000.31;5076473;28;20479;-52
2021/05/06 13:41:42;;;;;;;12.03;1.50;;;;;;;22.65;26.78;99991.97;5074931;28;20615;-48
2021/05/06 13:44:10;;;;;;;8.63;1.47;;;;;;;22.98;25.77;99999.19;5076569;28;20555;-52
2021/05/06 13:46:45;;;;;;;7.83;1.77;;;;;;;23.01;24.48;100002.59;5075065;28;20567;-49
2021/05/06 13:49:13;;;;;;;6.33;1.73;;;;;;;23.04;25.35;99999.94;5076220;28;20833;-49
2021/05/06 13:51:39;;;;;;;8.47;1.57;;;;;;;22.14;24.47;100011.31;5074754;28;20571;-47
2021/05/06 13:54:06;;;;;;;7.80;1.53;;;;;;;22.56;25.48;100013.19;5076521;28;20455;-49
2021/05/06 13:56:34;;;;;;;9.27;1.60;;;;;;;21.65;25.75;100012.13;5074648;28;20546;-48
2021/05/06 13:59:00;;;;;;;10.90;1.40;;;;;;;22.91;25.88;100004.56;5076109;28;20455;-49
2021/05/06 14:01:27;;;;;;;7.50;1.33;;;;;;;21.06;27.97;100015.56;5074089;28;20978;-49
2021/05/06 14:03:54;;;;;;;6.10;1.27;;;;;;;21.35;26.94;100016.94;5076219;28;20465;-47
2021/05/06 14:06:21;;;;;;;8.10;2.00;;;;;;;20.48;27.48;100020.63;5074900;28;20843;-50
2021/05/06 14:08:48;;;;;;;3.20;1.00;;;;;;;20.54;26.46;100007.44;5076188;28;20462;-50
2021/05/06 14:11:14;;;;;;;6.33;1.10;;;;;;;20.69;26.65;100018.63;5074356;28;21066;-50